Home > Products > Valid Products > TAF

000
FTUS45 KCYS 271120
TAFRWL
TAF
KRWL 271120Z 2712/2812 32010KT P6SM BKN090
     FM271800 30006KT P6SM VCSH SCT100
     FM272000 32007KT P6SM VCTS BKN100CB
     FM280100 27006KT P6SM BKN050
     FM280600 08006KT P6SM SCT200=



000
FTUS45 KCYS 271120
TAFCYS
TAF
KCYS 271120Z 2712/2812 34012G22KT P6SM VCSH OVC100
     FM271800 03013KT P6SM VCSH BKN080
      TEMPO 2718/2722 3SM -TSRA OVC040CB
     FM280100 12007KT P6SM BKN035
     FM280500 25006KT P6SM BKN250=



000
FTUS45 KCYS 271120
TAFLAR
TAF
KLAR 271120Z 2712/2812 01005KT P6SM VCSH BKN050
     FM271800 01008KT P6SM VCSH FEW040 BKN100
     FM272100 04009KT P6SM VCTS BKN080CB
     FM280100 13007KT P6SM BKN035
     FM280600 19006KT P6SM SCT200=



000
FTUS45 KCYS 261129 CCA
TAFRWL
TAF COR
KRWL 261129Z 2612/2712 27005KT P6SM SCT250
     FM261800 34012KT P6SM FEW070 SCT250
     FM262300 02010KT P6SM SCT200=



000
FTUS45 KCYS 261129 CCA
TAFLAR
TAF COR
KLAR 261129Z 2612/2712 20005KT P6SM SCT200
     FM261800 05008KT P6SM VCTS SCT070CB BKN200
     FM262100 08010KT P6SM -SHRA OVC090
      TEMPO 2621/2701 6SM -TSRA OVC040CB
     FM270300 02006KT P6SM SCT080
     FM270600 35006KT P6SM BKN070=



000
FTUS45 KCYS 261129 CCA
TAFCYS
TAF COR
KCYS 261129Z 2612/2712 28010KT P6SM SCT200
     FM261600 35006KT P6SM BKN200
     FM261800 06008KT P6SM VCTS SCT090CB BKN150
     FM262100 04009KT P6SM -SHRA BKN080
      TEMPO 2621/2701 6SM -TSRA BKN040CB
     FM270400 36010KT P6SM BKN050=



000
FTUS45 KCYS 260522
TAFLAR
TAF
KLAR 260522Z 2606/2706 18006KT P6SM SCT250
     FM261900 05011KT P6SM -SHRA VCTS SCT060 OVC090CB
     FM270200 36008KT P6SM VCSH OVC100=



000
FTUS45 KCYS 260522
TAFRWL
TAF
KRWL 260522Z 2606/2706 27010KT P6SM SCT200
     FM261900 32008KT P6SM VCSH BKN100
     FM270100 01010KT P6SM BKN120=



000
FTUS45 KCYS 260522
TAFCYS
TAF
KCYS 260522Z 2606/2706 27007KT P6SM SCT150
     FM261900 05008KT P6SM -SHRA VCTS SCT070 OVC100CB
     FM270200 04008KT P6SM VCSH OVC100=



000
FTUS45 KCYS 252337
TAFRWL
TAF
KRWL 252337Z 2600/2624 28015G23KT P6SM SCT120
     FM260200 25010KT P6SM BKN200
     FM261800 32008KT P6SM VCSH BKN100=



000
FTUS45 KCYS 252337
TAFCYS
TAF
KCYS 252337Z 2600/2624 26010KT P6SM VCSH BKN090
     FM260300 27007KT P6SM SCT150
     FM261800 05008KT P6SM -SHRA VCTS SCT050 OVC100CB=



000
FTUS45 KCYS 252337
TAFLAR
TAF
KLAR 252337Z 2600/2624 27014G23KT P6SM BKN100
     FM260200 20006KT P6SM SCT250
     FM261800 05011KT P6SM -SHRA VCTS SCT050 OVC080CB=



    US Dept of Commerce
    National Oceanic and Atmospheric Administration
    National Weather Service
    1325 East West Highway
    Silver Spring, MD 20910
    Page Author: NWS Internet Services Team
Disclaimer
Information Quality
Credits
Glossary
Privacy Policy
Freedom of Information Act (FOIA)
About Us
Career Opportunities